Archival Weather

Norman Y Mineta San Jose Intl

San Jose, California (KSJC)

Report from: Wednesday, February 21, 2024 11:53 AM PST
Current time: Monday, June 17, 2024 12:50 AM PDT

Current weather – Weather history – Daily summaries
Weather forecast

Temperature16.7°C (62.1°F)
Dew point7.2°C (45.0°F)
Winds 3 kts (1.5 m/s, 3.5 mph) Vrb
Winds variableWinds variable
Visibility10 mi. (16.1 km)
Clouds Few clouds 2,000 ft. (610 m)
Few clouds with towering cumulus 4,600 ft. (1,402 m)
Scattered clouds 9,000 ft. (2,743 m)
Altimeter30.20 in.Hg (1023 mB)
Relative humidity53 %
Density altitude33 ft. (10 m)
Sea-level pressure102.3 kPa (1023 mB, 30.20 in.Hg)
Remarks Automated weather observing station with precipitation discriminator
Towering cumulus clouds observed west and northwest towering cumulus clouds observed distant
Flight conditions Visual Meteorological Conditions
Raw dataKSJC 211953Z VRB03KT 10SM FEW020 FEW046TCU SCT090 17/07 A3020 RMK AO2 SLP226 TCU W AND NW TCU DSNT ALQDS T01670072
An error has occurred. This application may no longer respond until reloaded. Reload 🗙